• Join FlightAware (Why Join?)
  • Login
  • US Flag 
09:34AM EDT


 

Airport Tracker/Info


-or-


 

Live Flight TrackerFlight Track Log ✈ C-GMYJ ✈ 21-Aug-2013 ✈ KGGW - KCTB

Flight Track Log - Related Links

Times and Time Zones

All times are in EDT time to prevent confusion due to time zone crossing. See the C-GMYJ flight status page for this flight to view local times or setup timezone preferences in your user account.

Time Position Orientation Groundspeed Altitude Reporting Facility
EDT Latitude Longitude Course Direction KTS MPH feet Rate Location/Type
09:38PM 48.2363 -106.9822 278° West  Level FlightAware Approximate
09:39PM 48.2418 -107.0431 278° West  Level FlightAware Approximate
09:40PM 48.2494 -107.0959 282° West  Level FlightAware Approximate
09:41PM 48.2570 -107.1488 282° West  Level FlightAware Approximate
09:42PM 48.2645 -107.2017 282° West  Level FlightAware Approximate
09:43PM 48.2701 -107.2551 278° West  Level FlightAware Approximate
09:44PM 48.2748 -107.3087 278° West  Level FlightAware Approximate
09:45PM 48.2796 -107.3624 278° West  Level FlightAware Approximate
09:46PM 48.2843 -107.4160 278° West  Level FlightAware Approximate
09:47PM 48.2890 -107.4697 277° West  Level FlightAware Approximate
09:48PM 48.2937 -107.5234 277° West  Level FlightAware Approximate
09:49PM 48.2983 -107.5770 277° West  Level FlightAware Approximate
09:50PM 48.3029 -107.6307 277° West  Level FlightAware Approximate
09:51PM 48.3075 -107.6844 277° West  Level FlightAware Approximate
09:52PM 48.3120 -107.7381 277° West  Level FlightAware Approximate
09:53PM 48.3166 -107.7918 277° West  Level FlightAware Approximate
09:54PM 48.3211 -107.8455 277° West  Level FlightAware Approximate
09:55PM 48.3256 -107.8993 277° West  Level FlightAware Approximate
09:56PM 48.3300 -107.9530 277° West  Level FlightAware Approximate
09:57PM 48.3345 -108.0068 277° West  Level FlightAware Approximate
09:58PM 48.3389 -108.0605 277° West  Level FlightAware Approximate
09:59PM 48.3433 -108.1143 277° West  Level FlightAware Approximate
10:00PM 48.3476 -108.1681 277° West  Level FlightAware Approximate
10:01PM 48.3520 -108.2218 277° West  Level FlightAware Approximate
10:02PM 48.3563 -108.2757 277° West  Level FlightAware Approximate
10:02PM 48.4994 -108.9167 277° West 153 176 9,000  Level Salt Lake Center
10:03PM 48.3605 -108.3295 277° West  Level FlightAware Approximate
10:03PM 48.5047 -108.9853 277° West 140 161 8,900  Level Salt Lake Center
10:04PM 48.3648 -108.3833 277° West  Level FlightAware Approximate
10:04PM 48.5108 -109.0444 279° West 141 162 8,900  Level Salt Lake Center
10:05PM 48.3690 -108.4371 277° West  Level FlightAware Approximate
10:05PM 48.5192 -109.1025 282° West 140 161 8,900  Level Salt Lake Center
10:06PM 48.3733 -108.4909 277° West  Level FlightAware Approximate
10:06PM 48.5250 -109.1592 279° West 140 161 8,800  Level Salt Lake Center
10:07PM 48.3774 -108.5448 277° West  Level FlightAware Approximate
10:07PM 48.5256 -109.2192 271° West 142 163 8,900  Level Salt Lake Center
10:08PM 48.5264 -109.2764 271° West 140 161 8,800 -60 Descending Salt Lake Center
10:09PM 48.5278 -109.3339 272° West 139 160 8,800  Level Salt Lake Center
10:10PM 48.5297 -109.3928 273° West 139 160 8,900  Climbing Salt Lake Center
10:11PM 48.5311 -109.4525 272° West 141 162 8,900 -60 Level Salt Lake Center
10:12PM 48.5333 -109.5103 273° West 140 161 8,800 -60 Descending Salt Lake Center
10:13PM 48.5361 -109.5814 273° West 141 162 8,800  Level Salt Lake Center
10:14PM 48.5394 -109.6406 275° West 141 162 8,800  Level Salt Lake Center
10:15PM 48.5431 -109.6989 275° West 141 162 8,800  Level Salt Lake Center
10:16PM 48.5461 -109.7586 274° West 141 162 8,900  Climbing Salt Lake Center
10:17PM 48.5486 -109.8181 274° West 142 163 8,900  Level Salt Lake Center
10:18PM 48.5514 -109.8778 274° West 143 165 8,900  Level Salt Lake Center
10:19PM 48.5542 -109.9367 274° West 142 163 8,900  Level Salt Lake Center
10:20PM 48.5583 -109.9972 276° West 143 165 8,900 -60 Level Salt Lake Center
10:21PM 48.5617 -110.0594 275° West 145 167 8,800 -60 Descending Salt Lake Center
10:22PM 48.5642 -110.1206 274° West 146 168 8,800  Level Salt Lake Center
10:23PM 48.5678 -110.1911 274° West 144 166 8,800  Level Salt Lake Center
10:24PM 48.5717 -110.2517 276° West 144 166 8,800  Level Salt Lake Center
10:25PM 48.5767 -110.3131 277° West 145 167 8,800  Level Salt Lake Center
10:26PM 48.5806 -110.3744 275° West 146 168 8,800  Level Salt Lake Center
10:27PM 48.5833 -110.4344 274° West 146 168 8,800  Level Salt Lake Center
10:28PM 48.5856 -110.4944 273° West 145 167 8,800  Level Salt Lake Center
10:29PM 48.5878 -110.5533 273° West 144 166 8,800  Level Salt Lake Center
10:30PM 48.5906 -110.6150 274° West 144 166 8,800  Level Salt Lake Center
10:31PM 48.5931 -110.6747 274° West 145 167 8,800  Level Salt Lake Center
10:32PM 48.5972 -110.7472 275° West 144 166 8,900  Climbing Salt Lake Center
10:33PM 48.6008 -110.8075 275° West 145 167 8,900  Level Salt Lake Center
10:34PM 48.6042 -110.8686 275° West 145 167 8,900  Level Salt Lake Center
10:35PM 48.6072 -110.9300 274° West 146 168 9,000  Climbing Salt Lake Center
10:36PM 48.6094 -110.9889 273° West 144 166 8,900 -60 Descending Salt Lake Center
10:37PM 48.6119 -111.0489 274° West 144 166 8,900  Level Salt Lake Center
10:39PM 48.6133 -111.1078 272° West 143 165 8,900 -60 Level Salt Lake Center
10:40PM 48.6158 -111.1667 274° West 142 163 8,800 -60 Descending Salt Lake Center
10:41PM 48.6194 -111.2258 275° West 142 163 8,800  Level Salt Lake Center
10:42PM 48.6211 -111.2967 272° West 142 163 8,800  Level Salt Lake Center
10:43PM 48.6214 -111.3528 270° West 139 160 8,800  Level Salt Lake Center
10:44PM 48.6233 -111.4100 273° West 138 159 8,900  Climbing Salt Lake Center
10:45PM 48.6250 -111.4686 272° West 138 159 8,900 -60 Level Salt Lake Center
10:46PM 48.6281 -111.5269 275° West 139 160 8,800  Descending Salt Lake Center
10:47PM 48.6281 -111.5858 270° West 140 161 8,900  Climbing Salt Lake Center
10:48PM 48.6269 -111.6456 268° West 141 162 8,900  Level Salt Lake Center
10:49PM 48.6269 -111.7064 270° West 142 163 8,900  Level Salt Lake Center
10:50PM 48.6292 -111.7789 273° West 144 166 8,900  Level Salt Lake Center
10:51PM 48.6311 -111.8389 273° West 144 166 8,900  Level Salt Lake Center
10:52PM 48.6328 -111.8986 272° West 144 166 8,900 -60 Level Salt Lake Center
10:53PM 48.6339 -111.9589 272° West 144 166 8,800 -120 Descending Salt Lake Center
10:54PM 48.6328 -112.0208 268° West 145 167 8,700 -600 Descending Salt Lake Center
10:55PM 48.6322 -112.0828 269° West 146 168 7,700 -840 Descending Salt Lake Center
10:56PM 48.6314 -112.1447 269° West 147 169 7,100 -420 Descending Salt Lake Center
10:57PM 48.6308 -112.2067 269° West 148 170 6,900 -120 Descending Salt Lake Center
10:58PM 48.6328 -112.2678 273° West 148 170 6,900 -60 Level Salt Lake Center
10:59PM 48.6244 -112.3342 259° West 143 165 6,800 -60 Descending Salt Lake Center
11:00PM 48.5983 -112.3667 219° Southwest 135 155 6,800  Level Salt Lake Center
11:01PM 48.5678 -112.3489 159° South 123 142 6,900  Climbing Salt Lake Center
11:02PM 48.5528 -112.3028 116° Southeast 118 136 6,800 -60 Descending Salt Lake Center
11:03PM 48.5283 -112.3178 202° Southwest 132 152 6,800 -480 Level Salt Lake Center
11:04PM 48.5564 -112.3397 333° Northwest 125 144 5,900 -840 Descending Salt Lake Center
11:05PM 48.5861 -112.3544 342° North 121 139 5,100 -780 Descending Salt Lake Center
11:07PM 48.6000 -112.3667 270° West  Level FlightAware Approximate
11:14PM 48.6083 -112.3762 270° West  Level Estimated
11:15PM 48.6083 -112.3762 270° West  Level Estimated
11:16PM 48.6083 -112.3762 270° West  Level Estimated
11:17PM 48.6083 -112.3762 270° West  Level Estimated
11:18PM 48.6083 -112.3762 270° West  Level Estimated
11:19PM 48.6083 -112.3762 270° West  Level Estimated
11:20PM 48.6083 -112.3762 270° West  Level Estimated
11:21PM 48.6083 -112.3762 270° West  Level Estimated
11:22PM 48.6083 -112.3762 270° West  Level Estimated
11:23PM 48.6083 -112.3762 270° West  Level Estimated
11:24PM 48.6083 -112.3762 270° West  Level Estimated